createdAt,value
2023-01-15T00:02:28.837Z,98237.69
2023-01-15T00:04:56.536Z,98241.28
2023-01-15T00:07:24.321Z,98247.81
2023-01-15T00:09:52.705Z,98204.00
2023-01-15T00:12:22.883Z,98252.72
2023-01-15T00:14:51.504Z,98224.41
2023-01-15T00:17:19.172Z,98221.94
2023-01-15T00:19:48.956Z,98241.09
2023-01-15T00:22:16.723Z,98253.19
2023-01-15T00:25:03.181Z,98258.53
2023-01-15T00:27:40.151Z,98266.59
2023-01-15T00:30:09.166Z,98268.31
2023-01-15T00:32:37.056Z,98271.13
2023-01-15T00:35:07.099Z,98270.13
2023-01-15T00:37:34.808Z,98280.59
2023-01-15T00:40:02.445Z,98309.34
2023-01-15T00:42:30.237Z,98292.78
2023-01-15T00:44:57.821Z,98290.25
2023-01-15T00:47:27.518Z,98300.88
2023-01-15T00:49:55.096Z,98279.19
2023-01-15T00:52:24.146Z,98273.53
2023-01-15T00:54:53.998Z,98273.56
2023-01-15T00:57:22.039Z,98285.00
2023-01-15T00:59:49.662Z,98279.78
2023-01-15T01:02:17.469Z,98278.78
2023-01-15T01:04:45.205Z,98282.31
2023-01-15T01:07:15.172Z,98278.00
2023-01-15T01:09:44.211Z,98281.66
2023-01-15T01:12:23.639Z,98265.88
2023-01-15T01:14:51.384Z,98264.16
2023-01-15T01:17:19.111Z,98241.75
2023-01-15T01:19:46.717Z,98226.41
2023-01-15T01:22:14.387Z,98254.91
2023-01-15T01:24:41.996Z,98241.97
2023-01-15T01:27:11.178Z,98245.47
2023-01-15T01:29:38.928Z,98261.31
2023-01-15T01:32:06.901Z,98223.28
2023-01-15T01:34:34.624Z,98236.28
2023-01-15T01:37:23.480Z,98252.00
2023-01-15T01:39:51.205Z,98272.16
2023-01-15T01:42:23.350Z,98275.50
2023-01-15T01:45:24.837Z,98259.91
2023-01-15T01:47:52.901Z,98258.44
2023-01-15T01:50:20.795Z,98269.59
2023-01-15T01:52:50.050Z,98275.63
2023-01-15T01:55:18.142Z,98271.44
2023-01-15T01:57:47.327Z,98272.28
2023-01-15T02:00:15.458Z,98263.59
2023-01-15T02:02:45.185Z,98273.09
2023-01-15T02:05:14.769Z,98285.38
2023-01-15T02:07:42.649Z,98279.25
2023-01-15T02:10:15.443Z,98265.69
2023-01-15T02:12:43.012Z,98292.44
2023-01-15T02:15:14.736Z,98290.75
2023-01-15T02:17:45.172Z,98239.91
2023-01-15T02:20:25.607Z,98276.09
2023-01-15T02:23:05.002Z,98270.91
2023-01-15T02:25:34.737Z,98272.53
2023-01-15T02:28:06.833Z,98270.97
2023-01-15T02:30:35.417Z,98266.44
2023-01-15T02:33:06.116Z,98261.25
2023-01-15T02:35:35.919Z,98218.34
2023-01-15T02:38:05.392Z,98273.78
2023-01-15T02:40:32.960Z,98252.56
2023-01-15T02:43:00.628Z,98242.19
2023-01-15T02:45:30.458Z,98235.34
2023-01-15T02:48:01.943Z,98236.25
2023-01-15T02:50:31.441Z,98253.59
2023-01-15T02:53:00.688Z,98245.31
2023-01-15T02:55:29.544Z,98256.31
2023-01-15T02:57:59.053Z,98262.25
2023-01-15T03:00:26.771Z,98256.16
2023-01-15T03:02:59.263Z,98242.38
2023-01-15T03:05:28.258Z,98239.69
2023-01-15T03:07:56.301Z,98216.66
2023-01-15T03:10:24.180Z,98200.44
2023-01-15T03:13:03.099Z,98239.69
2023-01-15T03:15:54.640Z,98215.97
2023-01-15T03:18:26.667Z,98230.28
2023-01-15T03:20:55.568Z,98251.34
2023-01-15T03:23:24.628Z,98226.31
2023-01-15T03:25:52.381Z,98253.16
2023-01-15T03:28:22.249Z,98255.75
2023-01-15T03:30:49.920Z,98218.56
2023-01-15T03:33:17.585Z,98244.72
2023-01-15T03:35:48.659Z,98218.72
2023-01-15T03:38:18.741Z,98223.03
2023-01-15T03:40:51.178Z,98227.44
2023-01-15T03:43:36.331Z,98205.94
2023-01-15T03:46:06.870Z,98220.41
2023-01-15T03:48:36.095Z,98213.59
2023-01-15T03:51:06.470Z,98203.63
2023-01-15T03:53:35.131Z,98217.91
2023-01-15T03:56:04.636Z,98210.16
2023-01-15T03:58:36.394Z,98221.44
2023-01-15T04:01:04.649Z,98169.03
2023-01-15T04:03:34.562Z,98199.72
2023-01-15T04:06:02.509Z,98196.25
2023-01-15T04:08:32.599Z,98174.34
2023-01-15T04:11:01.220Z,98219.72
2023-01-15T04:13:31.256Z,98219.69
2023-01-15T04:15:59.340Z,98224.91
2023-01-15T04:18:27.145Z,98218.84
2023-01-15T04:20:55.646Z,98224.94
2023-01-15T04:23:23.461Z,98222.31
2023-01-15T04:25:52.443Z,98222.38
2023-01-15T04:28:19.988Z,98207.78
2023-01-15T04:30:47.699Z,98224.91
2023-01-15T04:33:15.521Z,98228.44
2023-01-15T04:35:43.210Z,98235.38
2023-01-15T04:38:10.848Z,98239.72
2023-01-15T04:40:55.919Z,98238.00
2023-01-15T04:43:42.681Z,98238.84
2023-01-15T04:46:10.328Z,98235.38
2023-01-15T04:48:39.760Z,98166.97
2023-01-15T04:51:07.928Z,98229.34
2023-01-15T04:53:35.598Z,98222.38
2023-01-15T04:56:03.652Z,98221.47
2023-01-15T04:58:32.690Z,98178.53
2023-01-15T05:01:00.819Z,98217.09
2023-01-15T05:03:29.524Z,98213.00
2023-01-15T05:05:57.090Z,98228.44
2023-01-15T05:08:24.724Z,98230.03
2023-01-15T05:10:52.439Z,98167.53
2023-01-15T05:13:20.072Z,98232.63
2023-01-15T05:15:49.329Z,98218.72
2023-01-15T05:18:16.874Z,98216.13
2023-01-15T05:20:44.532Z,98224.81
2023-01-15T05:23:12.111Z,98232.50
2023-01-15T05:25:39.738Z,98238.69
2023-01-15T05:28:07.393Z,98231.66
2023-01-15T05:30:36.617Z,98235.13
2023-01-15T05:33:05.541Z,98241.19
2023-01-15T05:35:33.213Z,98242.03
2023-01-15T05:38:00.745Z,98230.66
2023-01-15T05:40:28.408Z,98237.63
2023-01-15T05:42:55.929Z,98235.84
2023-01-15T05:45:23.553Z,98248.78
2023-01-15T05:47:52.588Z,98239.34
2023-01-15T05:50:21.629Z,98239.31
2023-01-15T05:52:49.178Z,98237.50
2023-01-15T05:55:17.083Z,98241.84
2023-01-15T05:57:44.653Z,98236.63
2023-01-15T06:00:13.760Z,98230.63
2023-01-15T06:02:41.378Z,98237.56
2023-01-15T06:05:09.807Z,98235.06
2023-01-15T06:07:38.785Z,98249.91
2023-01-15T06:10:07.520Z,98237.78
2023-01-15T06:12:35.124Z,98249.94
2023-01-15T06:15:02.810Z,98241.72
2023-01-15T06:17:30.403Z,98242.03
2023-01-15T06:19:57.959Z,98259.22
2023-01-15T06:22:25.569Z,98268.03
2023-01-15T06:24:54.465Z,98266.13
2023-01-15T06:27:22.108Z,98260.00
2023-01-15T06:29:49.679Z,98252.25
2023-01-15T06:32:17.270Z,98266.06
2023-01-15T06:34:44.849Z,98254.75
2023-01-15T06:37:12.397Z,98259.13
2023-01-15T06:39:40.006Z,98250.31
2023-01-15T06:42:27.407Z,98259.09
2023-01-15T06:45:13.299Z,98253.91
2023-01-15T06:47:43.675Z,98259.06
2023-01-15T06:50:12.211Z,98266.81
2023-01-15T06:52:39.783Z,98275.63
2023-01-15T06:55:08.358Z,98264.22
2023-01-15T06:57:39.254Z,98273.00
2023-01-15T07:00:07.789Z,98278.16
2023-01-15T07:02:35.595Z,98286.97
2023-01-15T07:05:03.230Z,98279.13
2023-01-15T07:07:30.842Z,98264.41
2023-01-15T07:09:58.534Z,98274.72
2023-01-15T07:12:26.224Z,98273.16
2023-01-15T07:14:55.143Z,98286.16
2023-01-15T07:17:22.770Z,98284.47
2023-01-15T07:19:50.341Z,98281.78
2023-01-15T07:22:18.310Z,98280.94
2023-01-15T07:24:45.884Z,98273.94
2023-01-15T07:27:13.530Z,98273.13
2023-01-15T07:29:41.097Z,98273.16
2023-01-15T07:32:10.134Z,98288.03
2023-01-15T07:34:37.759Z,98291.44
2023-01-15T07:37:05.306Z,98297.63
2023-01-15T07:39:32.886Z,98302.06
2023-01-15T07:42:18.207Z,98305.47
2023-01-15T07:45:03.627Z,98297.72
2023-01-15T07:47:50.367Z,98308.09
2023-01-15T07:50:23.409Z,98302.09
2023-01-15T07:52:53.162Z,98310.72
2023-01-15T07:55:21.189Z,98312.38
2023-01-15T07:57:49.483Z,98318.38
2023-01-15T08:00:20.495Z,98314.03
2023-01-15T08:02:50.685Z,98321.91
2023-01-15T08:05:18.498Z,98315.78
2023-01-15T08:07:47.644Z,98287.63
2023-01-15T08:10:15.693Z,98268.72
2023-01-15T08:13:00.671Z,98333.06
2023-01-15T08:15:30.526Z,98312.28
2023-01-15T08:17:59.440Z,98336.56
2023-01-15T08:20:27.410Z,98336.44
2023-01-15T08:22:54.986Z,98340.63
2023-01-15T08:27:56.945Z,98333.91
2023-01-15T08:30:25.880Z,98353.03
2023-01-15T08:32:53.743Z,98346.91
2023-01-15T08:35:22.873Z,98359.97
2023-01-15T08:37:50.906Z,98361.06
2023-01-15T08:40:19.206Z,98367.75
2023-01-15T08:42:47.023Z,98360.88
2023-01-15T08:45:15.103Z,98373.81
2023-01-15T08:47:42.841Z,98362.56
2023-01-15T08:50:11.855Z,98373.78
2023-01-15T08:52:41.382Z,98369.38
2023-01-15T08:55:09.762Z,98373.78
2023-01-15T08:57:38.528Z,98372.88
2023-01-15T09:00:10.385Z,98381.47
2023-01-15T09:02:38.185Z,98383.41
2023-01-15T09:05:06.763Z,98373.00
2023-01-15T09:07:35.405Z,98416.47
2023-01-15T09:10:05.140Z,98398.19
2023-01-15T09:12:32.924Z,98384.31
2023-01-15T09:15:03.234Z,98389.66
2023-01-15T09:17:31.861Z,98403.41
2023-01-15T09:20:00.104Z,98394.69
2023-01-15T09:22:30.854Z,98397.38
2023-01-15T09:24:58.882Z,98345.81
2023-01-15T09:27:28.103Z,98392.97
2023-01-15T09:29:55.877Z,98395.66
2023-01-15T09:32:25.081Z,98381.81
2023-01-15T09:34:52.973Z,98382.88
2023-01-15T09:37:20.830Z,98385.53
2023-01-15T09:39:49.369Z,98386.28
2023-01-15T09:42:29.512Z,98387.97
2023-01-15T09:45:11.649Z,98390.38
2023-01-15T09:48:07.835Z,98381.03
2023-01-15T09:50:41.560Z,98400.44
2023-01-15T09:53:19.274Z,98394.97
2023-01-15T09:55:47.920Z,98389.72
2023-01-15T09:58:19.127Z,98350.44
2023-01-15T10:00:47.729Z,98383.19
2023-01-15T10:03:26.897Z,98374.44
2023-01-15T10:05:56.528Z,98370.09
2023-01-15T10:08:25.836Z,98377.69
2023-01-15T10:10:57.746Z,98380.91
2023-01-15T10:13:30.054Z,98378.78
2023-01-15T10:15:58.535Z,98376.50
2023-01-15T10:18:28.174Z,98404.38
2023-01-15T10:21:11.292Z,98395.78
2023-01-15T10:23:40.813Z,98383.22
2023-01-15T10:26:16.844Z,98384.75
2023-01-15T10:29:04.574Z,98377.22
2023-01-15T10:31:54.635Z,98397.44
2023-01-15T10:34:44.341Z,98380.59
2023-01-15T10:37:14.077Z,98377.31
2023-01-15T10:39:44.938Z,98403.47
2023-01-15T10:42:15.599Z,98408.25
2023-01-15T10:44:47.091Z,98433.25
2023-01-15T10:47:18.056Z,98417.53
2023-01-15T10:49:46.582Z,98407.19
2023-01-15T10:52:33.090Z,98410.72
2023-01-15T10:55:04.792Z,98415.72
2023-01-15T10:57:40.109Z,98422.53
2023-01-15T11:00:11.954Z,98415.50
2023-01-15T11:02:41.640Z,98415.25
2023-01-15T11:05:13.556Z,98414.97
2023-01-15T11:08:03.301Z,98423.56
2023-01-15T11:10:30.851Z,98413.06
2023-01-15T11:13:17.060Z,98409.47
2023-01-15T11:16:05.402Z,98440.03
2023-01-15T11:18:52.957Z,98419.06
2023-01-15T11:21:22.714Z,98417.09
2023-01-15T11:23:51.879Z,98426.50
2023-01-15T11:26:21.621Z,98401.25
2023-01-15T11:28:49.989Z,98409.28
2023-01-15T11:31:19.211Z,98393.91
2023-01-15T11:33:56.651Z,98430.56
2023-01-15T11:36:25.334Z,98428.09
2023-01-15T11:38:53.374Z,98414.41
2023-01-15T11:41:49.640Z,98404.25
2023-01-15T11:44:35.744Z,98389.84
2023-01-15T11:47:22.631Z,98390.47
2023-01-15T11:50:10.931Z,98418.09
2023-01-15T11:52:38.932Z,98404.34
2023-01-15T11:55:11.527Z,98396.56
2023-01-15T11:57:39.640Z,98413.50
2023-01-15T12:00:09.195Z,98384.53
2023-01-15T12:02:40.487Z,98394.63
2023-01-15T12:05:14.700Z,98417.22
2023-01-15T12:07:42.794Z,98411.03
2023-01-15T12:10:18.407Z,98407.63
2023-01-15T12:12:57.030Z,98403.31
2023-01-15T12:15:34.767Z,98405.00
2023-01-15T12:18:30.915Z,98383.16
2023-01-15T12:21:04.763Z,98412.84
2023-01-15T12:23:55.875Z,98398.94
2023-01-15T12:26:26.073Z,98413.16
2023-01-15T12:28:59.098Z,98389.53
2023-01-15T12:31:28.513Z,98401.56
2023-01-15T12:33:59.432Z,98399.75
2023-01-15T12:36:28.933Z,98394.41
2023-01-15T12:38:58.652Z,98384.78
2023-01-15T12:41:48.140Z,98390.00
2023-01-15T12:44:36.069Z,98389.09
2023-01-15T12:47:06.373Z,98377.72
2023-01-15T12:49:36.642Z,98367.38
2023-01-15T12:52:06.384Z,98371.53
2023-01-15T12:54:37.106Z,98384.34
2023-01-15T12:57:06.979Z,98359.84
2023-01-15T12:59:37.009Z,98364.66
2023-01-15T13:02:12.806Z,98364.31
2023-01-15T13:04:45.368Z,98368.56
2023-01-15T13:07:15.455Z,98380.00
2023-01-15T13:09:45.660Z,98375.81
2023-01-15T13:12:14.211Z,98385.50
2023-01-15T13:14:42.814Z,98392.53
2023-01-15T13:17:16.499Z,98379.81
2023-01-15T13:19:49.517Z,98393.63
2023-01-15T13:22:19.105Z,98384.16
2023-01-15T13:25:12.656Z,98380.69
2023-01-15T13:27:49.935Z,98392.13
2023-01-15T13:30:25.264Z,98405.38
2023-01-15T13:32:53.884Z,98402.81
2023-01-15T13:35:28.298Z,98397.72
2023-01-15T13:37:56.605Z,98423.81
2023-01-15T13:40:25.806Z,98401.31
2023-01-15T13:42:53.527Z,98405.69
2023-01-15T13:45:27.479Z,98382.72
2023-01-15T13:47:56.515Z,98423.19
2023-01-15T13:50:28.927Z,98407.63
2023-01-15T13:53:02.038Z,98407.03
2023-01-15T13:55:31.775Z,98391.59
2023-01-15T13:57:59.509Z,98419.06
2023-01-15T14:00:29.225Z,98432.13
2023-01-15T14:02:57.237Z,98426.09
2023-01-15T14:05:31.314Z,98416.72
2023-01-15T14:07:58.910Z,98449.59
2023-01-15T14:10:38.544Z,98433.84
2023-01-15T14:13:26.436Z,98439.06
2023-01-15T14:15:56.237Z,98420.78
2023-01-15T14:19:00.121Z,98442.47
2023-01-15T14:21:32.474Z,98439.09
2023-01-15T14:24:23.121Z,98444.38
2023-01-15T14:26:54.068Z,98454.03
2023-01-15T14:29:35.960Z,98426.22
2023-01-15T14:32:06.332Z,98426.38
2023-01-15T14:34:34.767Z,98453.25
2023-01-15T14:37:04.741Z,98441.94
2023-01-15T14:39:37.581Z,98434.41
2023-01-15T14:42:26.583Z,98453.38
2023-01-15T14:45:01.025Z,98448.19
2023-01-15T14:47:32.098Z,98462.13
2023-01-15T14:50:24.849Z,98449.72
2023-01-15T14:52:54.615Z,98455.06
2023-01-15T14:55:22.402Z,98480.34
2023-01-15T14:57:55.104Z,98496.06
2023-01-15T15:00:22.842Z,98481.34
2023-01-15T15:02:50.563Z,98466.63
2023-01-15T15:05:19.561Z,98472.91
2023-01-15T15:07:48.876Z,98481.97
2023-01-15T15:10:22.556Z,98457.75
2023-01-15T15:12:52.972Z,98466.00
2023-01-15T15:15:24.245Z,98468.69
2023-01-15T15:17:58.778Z,98449.25
2023-01-15T15:20:31.421Z,98464.31
2023-01-15T15:23:04.832Z,98456.66
2023-01-15T15:25:34.676Z,98464.47
2023-01-15T15:28:04.030Z,98464.16
2023-01-15T15:30:33.098Z,98465.13
2023-01-15T15:33:00.738Z,98459.50
2023-01-15T15:35:29.457Z,98467.81
2023-01-15T15:37:57.079Z,98429.84
2023-01-15T15:40:30.526Z,98467.09
2023-01-15T15:43:23.999Z,98473.91
2023-01-15T15:46:10.544Z,98451.19
2023-01-15T15:48:45.453Z,98467.81
2023-01-15T15:51:25.801Z,98456.56
2023-01-15T15:54:04.414Z,98466.81
2023-01-15T15:56:32.401Z,98441.09
2023-01-15T15:59:01.421Z,98459.91
2023-01-15T16:01:29.118Z,98465.06
2023-01-15T16:03:56.863Z,98502.66
2023-01-15T16:06:25.918Z,98479.97
2023-01-15T16:08:53.741Z,98458.19
2023-01-15T16:11:21.911Z,98475.75
2023-01-15T16:13:52.704Z,98461.88
2023-01-15T16:16:21.867Z,98451.44
2023-01-15T16:18:55.425Z,98473.19
2023-01-15T16:21:25.395Z,98463.50
2023-01-15T16:23:59.372Z,98448.72
2023-01-15T16:26:31.808Z,98461.63
2023-01-15T16:29:00.489Z,98464.31
2023-01-15T16:31:33.921Z,98468.59
2023-01-15T16:34:01.732Z,98476.63
2023-01-15T16:36:29.630Z,98487.69
2023-01-15T16:38:57.196Z,98472.25
2023-01-15T16:41:27.767Z,98465.41
2023-01-15T16:43:59.125Z,98467.03
2023-01-15T16:46:29.693Z,98467.84
2023-01-15T16:49:25.478Z,98460.97
2023-01-15T16:51:53.236Z,98464.59
2023-01-15T16:54:44.381Z,98466.25
2023-01-15T16:57:34.577Z,98468.03
2023-01-15T17:00:05.202Z,98461.97
2023-01-15T17:02:44.179Z,98471.66
2023-01-15T17:05:29.709Z,98445.69
2023-01-15T17:07:57.969Z,98462.81
2023-01-15T17:10:27.107Z,98455.06
2023-01-15T17:12:56.305Z,98449.25
2023-01-15T17:15:45.015Z,98461.13
2023-01-15T17:18:37.654Z,98474.13
2023-01-15T17:21:05.528Z,98457.75
2023-01-15T17:23:36.486Z,98463.72
2023-01-15T17:26:04.607Z,98462.91
2023-01-15T17:28:32.460Z,98462.81
2023-01-15T17:31:01.702Z,98481.47
2023-01-15T17:33:29.513Z,98487.34
2023-01-15T17:36:01.231Z,98470.16
2023-01-15T17:38:29.424Z,98476.25
2023-01-15T17:41:00.239Z,98504.84
2023-01-15T17:43:28.118Z,98498.00
2023-01-15T17:45:55.721Z,98491.94
2023-01-15T17:48:23.452Z,98483.31
2023-01-15T17:50:51.044Z,98482.69
2023-01-15T17:53:20.421Z,98483.38
2023-01-15T17:56:05.496Z,98500.75
2023-01-15T17:58:50.767Z,98483.44
2023-01-15T18:01:36.636Z,98489.66
2023-01-15T18:04:21.751Z,98497.53
2023-01-15T18:06:50.828Z,98491.34
2023-01-15T18:09:20.289Z,98477.50
2023-01-15T18:11:48.106Z,98486.13
2023-01-15T18:14:15.780Z,98474.84
2023-01-15T18:16:43.472Z,98487.03
2023-01-15T18:19:11.248Z,98484.41
2023-01-15T18:21:39.973Z,98469.72
2023-01-15T18:24:09.333Z,98491.34
2023-01-15T18:26:39.445Z,98469.63
2023-01-15T18:29:07.372Z,98434.50
2023-01-15T18:31:35.113Z,98463.56
2023-01-15T18:34:02.943Z,98470.44
2023-01-15T18:36:30.612Z,98475.59
2023-01-15T18:39:02.686Z,98469.66
2023-01-15T18:41:47.272Z,98479.19
2023-01-15T18:44:40.225Z,98469.63
2023-01-15T18:47:12.070Z,98478.31
2023-01-15T18:49:40.172Z,98476.50
2023-01-15T18:52:25.733Z,98482.69
2023-01-15T18:54:53.477Z,98480.19
2023-01-15T18:57:21.257Z,98444.06
2023-01-15T18:59:50.565Z,98469.88
2023-01-15T19:02:18.628Z,98484.69
2023-01-15T19:04:46.300Z,98471.47
2023-01-15T19:07:14.514Z,98461.19
2023-01-15T19:09:42.262Z,98474.97
2023-01-15T19:12:10.286Z,98465.25
2023-01-15T19:14:55.579Z,98466.25
2023-01-15T19:17:43.318Z,98460.22
2023-01-15T19:20:12.144Z,98455.97
2023-01-15T19:22:59.216Z,98455.09
2023-01-15T19:25:27.140Z,98452.41
2023-01-15T19:27:55.436Z,98456.81
2023-01-15T19:30:23.225Z,98407.03
2023-01-15T19:32:52.443Z,98437.66
2023-01-15T19:35:20.228Z,98427.31
2023-01-15T19:37:48.586Z,98412.09
2023-01-15T19:40:18.223Z,98434.13
2023-01-15T19:43:03.337Z,98431.53
2023-01-15T19:45:48.545Z,98430.84
2023-01-15T19:48:35.426Z,98416.09
2023-01-15T19:51:03.427Z,98364.75
2023-01-15T19:53:31.311Z,98417.19
2023-01-15T19:55:58.932Z,98413.69
2023-01-15T19:58:26.805Z,98405.94
2023-01-15T20:00:54.804Z,98404.16
2023-01-15T20:03:23.862Z,98394.81
2023-01-15T20:05:51.757Z,98413.75
2023-01-15T20:08:19.648Z,98396.34
2023-01-15T20:10:48.637Z,98398.09
2023-01-15T20:13:34.734Z,98378.19
2023-01-15T20:16:10.258Z,98385.97
2023-01-15T20:18:39.453Z,98393.00
2023-01-15T20:21:07.523Z,98386.78
2023-01-15T20:23:36.632Z,98381.56
2023-01-15T20:26:05.218Z,98380.66
2023-01-15T20:28:33.517Z,98371.88
2023-01-15T20:31:01.333Z,98382.28
2023-01-15T20:33:29.175Z,98377.91
2023-01-15T20:35:58.200Z,98373.66
2023-01-15T20:38:26.236Z,98297.88
2023-01-15T20:40:54.378Z,98365.00
2023-01-15T20:43:41.567Z,98350.22
2023-01-15T20:46:11.081Z,98353.00
2023-01-15T20:48:56.542Z,98347.78
2023-01-15T20:51:25.931Z,98320.16
2023-01-15T20:53:53.662Z,98341.66
2023-01-15T20:56:21.363Z,98345.22
2023-01-15T20:58:49.976Z,98354.88
2023-01-15T21:01:18.271Z,98326.25
2023-01-15T21:03:46.838Z,98341.78
2023-01-15T21:06:14.785Z,98336.66
2023-01-15T21:08:44.680Z,98322.78
2023-01-15T21:11:12.445Z,98318.41
2023-01-15T21:13:44.673Z,98327.13
2023-01-15T21:16:13.770Z,98287.53
2023-01-15T21:18:43.264Z,98309.84
2023-01-15T21:21:22.110Z,98305.50
2023-01-15T21:23:51.193Z,98301.19
2023-01-15T21:26:19.011Z,98288.97
2023-01-15T21:28:46.665Z,98272.75
2023-01-15T21:31:16.983Z,98251.78
2023-01-15T21:33:45.715Z,98274.94
2023-01-15T21:36:14.208Z,98239.78
2023-01-15T21:38:41.978Z,98268.81
2023-01-15T21:41:13.210Z,98261.31
2023-01-15T21:43:58.628Z,98234.81
2023-01-15T21:46:27.726Z,98265.09
2023-01-15T21:48:55.477Z,98277.94
2023-01-15T21:51:23.173Z,98259.09
2023-01-15T21:53:50.915Z,98253.19
2023-01-15T21:56:19.864Z,98260.09
2023-01-15T21:58:47.667Z,98257.00
2023-01-15T22:01:17.953Z,98262.09
2023-01-15T22:03:46.234Z,98255.41
2023-01-15T22:06:14.018Z,98264.13
2023-01-15T22:08:42.815Z,98247.78
2023-01-15T22:11:14.441Z,98241.03
2023-01-15T22:13:44.266Z,98242.84
2023-01-15T22:16:12.036Z,98233.50
2023-01-15T22:18:41.606Z,98222.59
2023-01-15T22:21:14.875Z,98232.66
2023-01-15T22:23:43.062Z,98227.41
2023-01-15T22:26:17.336Z,98214.44
2023-01-15T22:28:46.689Z,98211.00
2023-01-15T22:31:17.605Z,98205.78
2023-01-15T22:33:45.284Z,98210.94
2023-01-15T22:36:14.657Z,98207.56
2023-01-15T22:38:44.361Z,98194.50
2023-01-15T22:41:12.563Z,98190.16
2023-01-15T22:43:40.250Z,98185.88
2023-01-15T22:46:13.147Z,98034.41
2023-01-15T22:48:40.802Z,98179.13
2023-01-15T22:51:08.484Z,98181.75
2023-01-15T22:53:36.996Z,98173.91
2023-01-15T22:56:05.193Z,98174.66
2023-01-15T22:58:32.829Z,98146.00
2023-01-15T23:01:00.725Z,98146.13
2023-01-15T23:03:29.937Z,98150.38
2023-01-15T23:05:57.679Z,98141.72
2023-01-15T23:08:26.645Z,98128.59
2023-01-15T23:10:54.895Z,98135.41
2023-01-15T23:13:22.517Z,98136.28
2023-01-15T23:15:57.225Z,98123.28
2023-01-15T23:18:24.874Z,98087.13
2023-01-15T23:20:54.024Z,98112.78
2023-01-15T23:23:21.659Z,98088.56
2023-01-15T23:25:50.047Z,98102.34
2023-01-15T23:28:17.776Z,98103.91
2023-01-15T23:30:47.584Z,98090.31
2023-01-15T23:33:15.543Z,98101.22
2023-01-15T23:35:43.281Z,98108.47
2023-01-15T23:38:12.261Z,98069.72
2023-01-15T23:40:41.398Z,98034.50
2023-01-15T23:43:27.999Z,98079.88
2023-01-15T23:46:13.451Z,98086.13
2023-01-15T23:51:08.822Z,98085.09
2023-01-15T23:53:37.762Z,98061.75
2023-01-15T23:56:06.226Z,98013.88
2023-01-15T23:58:33.854Z,98053.97
